03NE weather

Hyde Ranch Airport
Comstock, Nebraska, United States

Public forecast

Using degrees Fahrenheit for public forecast. Weather courtesy of forecast.io.

Closest aviation weather report (METAR) to Hyde Ranch Airport

Closest report is Broken Bow Municipal Airport, 15.5 nm (28.6 km) WSW. Retrieved 2019/10/14 18:53 UTC (15 minutes ago):

KBBW 141853Z AUTO 18013G18KT 10SM CLR 22/04 A2980 RMK AO2 SLP089 T02220044

Closest aviation forecast (TAF) to Hyde Ranch Airport

Closest forecast is Kearney Regional Airport, 51.3 nm (95.1 km) SSE. Retrieved 2019/10/14 18:22 UTC (46 minutes ago):

TAF KEAR 141720Z 1418/1518 18012KT P6SM FEW250 FM142000 18013G20KT P6SM SKC FM150100 VRB06KT P6SM SKC FM150800 33016KT P6SM SKC WS010/34040KT FM151400 33020G31KT P6SM SKC